Terminal Aerodrome Forecast
Issued by NWS

Home | Current Version | Previous Version | Text Only | Print | Product List | Glossary On
Versions: 1 2 3 4 5 6 7 8 9 10 11 12 13
000
FTUS45 KTFX 272300 RRA
TAFCTB
TAF
KCTB 272342Z 2800/2824 25008KT P6SM BKN080
     FM280300 VRB06KT 4SM -SN BR OVC020
     FM281100 36017KT 1/2SM -SN FZFG OVC005
     FM282200 01015KT 2SM -SN BR OVC012=

USA.gov is the U.S. government's official web portal to all federal, state and local government web resources and services.